Time;durP1;ratioP1;P1;durP2;ratioP2;P2;SDS_P1;SDS_P2;PMS_P1;PMS_P2;Temp;Humidity;BMP_temperature;BMP_pressure;BME280_temperature;BME280_humidity;BME280_pressure;Samples;Min_cycle;Max_cycle;Signal;HPM_P1;HPM_P2
2022/04/07 00:00:29;;;;;;;13.05;5.18;;;11.60;99.90;;;;;;5003322;28;20041;-70
2022/04/07 00:02:55;;;;;;;13.50;5.05;;;11.60;99.90;;;;;;5020721;28;20069;-70
2022/04/07 00:05:21;;;;;;;17.17;5.10;;;11.50;99.90;;;;;;5023274;28;20065;-70
2022/04/07 00:07:47;;;;;;;12.25;5.38;;;11.50;99.90;;;;;;5024084;28;20128;-69
2022/04/07 00:10:14;;;;;;;11.73;4.97;;;11.40;99.90;;;;;;5031361;28;20087;-70
2022/04/07 00:12:39;;;;;;;9.85;5.05;;;11.40;99.90;;;;;;5037025;28;20740;-69
2022/04/07 00:15:06;;;;;;;12.60;5.90;;;11.40;99.90;;;;;;5018636;28;20038;-69
2022/04/07 00:17:32;;;;;;;10.00;5.57;;;11.40;99.90;;;;;;5019077;28;20034;-70
2022/04/07 00:19:58;;;;;;;9.85;6.25;;;11.40;99.90;;;;;;5021503;28;20044;-70
2022/04/07 00:22:24;;;;;;;10.23;5.35;;;11.30;99.90;;;;;;5018800;28;20387;-69
2022/04/07 00:24:50;;;;;;;12.27;5.43;;;11.30;99.90;;;;;;5019511;28;20046;-70
2022/04/07 00:27:17;;;;;;;12.35;5.10;;;11.20;99.90;;;;;;5016446;28;20095;-70
2022/04/07 00:29:43;;;;;;;10.25;5.25;;;11.30;99.90;;;;;;5022531;28;21022;-71
2022/04/07 00:32:10;;;;;;;10.65;5.97;;;11.20;99.90;;;;;;5001193;28;20385;-69
2022/04/07 00:34:37;;;;;;;12.00;5.15;;;11.20;99.90;;;;;;5038042;28;20038;-70
2022/04/07 00:37:03;;;;;;;16.35;5.18;;;11.10;99.90;;;;;;5035801;28;20059;-70
2022/04/07 00:39:29;;;;;;;11.77;5.03;;;11.10;99.90;;;;;;5020197;28;20099;-69
2022/04/07 00:41:55;;;;;;;11.60;4.82;;;11.10;99.90;;;;;;5019710;28;20502;-70
2022/04/07 00:44:22;;;;;;;8.80;4.85;;;11.20;99.90;;;;;;5021092;28;20091;-70
2022/04/07 00:46:49;;;;;;;12.85;4.60;;;11.10;99.90;;;;;;5036905;28;20042;-70
2022/04/07 00:49:15;;;;;;;10.35;4.80;;;11.20;99.90;;;;;;5015607;28;20034;-70
2022/04/07 00:51:43;;;;;;;8.50;4.35;;;11.10;99.90;;;;;;5033996;28;20136;-69
2022/04/07 00:54:12;;;;;;;9.70;4.90;;;11.10;99.90;;;;;;5019136;28;20042;-69
2022/04/07 00:56:40;;;;;;;11.85;4.47;;;11.00;99.90;;;;;;5020785;28;20042;-69
2022/04/07 00:59:08;;;;;;;13.75;4.88;;;11.00;99.90;;;;;;5018172;28;20046;-71
2022/04/07 01:01:34;;;;;;;11.48;4.57;;;11.00;99.90;;;;;;5032037;28;20543;-70
2022/04/07 01:04:01;;;;;;;12.90;5.05;;;11.00;99.90;;;;;;5019246;28;20520;-69
2022/04/07 01:06:27;;;;;;;14.13;4.57;;;11.00;99.90;;;;;;5032848;28;20099;-70
2022/04/07 01:08:55;;;;;;;10.55;4.90;;;11.00;99.90;;;;;;5020487;28;20102;-70
2022/04/07 01:11:22;;;;;;;12.52;5.60;;;11.00;99.90;;;;;;4999774;28;20103;-71
2022/04/07 01:13:50;;;;;;;12.63;5.35;;;11.00;99.90;;;;;;5001605;28;20038;-70
2022/04/07 01:16:18;;;;;;;13.38;5.10;;;11.00;99.90;;;;;;5000398;28;20081;-69
2022/04/07 01:18:46;;;;;;;12.85;5.53;;;11.00;99.90;;;;;;5024454;28;20120;-70
2022/04/07 01:21:17;;;;;;;14.48;5.38;;;10.90;99.90;;;;;;5002770;28;20044;-70
2022/04/07 01:24:01;;;;;;;8.57;4.45;;;10.80;99.90;;;;;;5035737;28;20041;-70
2022/04/07 01:26:28;;;;;;;13.55;4.82;;;10.70;99.90;;;;;;5036863;28;20049;-70
2022/04/07 01:28:53;;;;;;;12.05;4.80;;;10.80;99.90;;;;;;5019920;28;20065;-70
2022/04/07 01:31:20;;;;;;;9.82;4.88;;;10.90;99.90;;;;;;5023620;28;20488;-70
2022/04/07 01:33:47;;;;;;;10.88;5.07;;;10.80;99.90;;;;;;5018159;28;20382;-69
2022/04/07 01:36:16;;;;;;;10.20;4.88;;;10.80;99.90;;;;;;5019273;28;20041;-70
2022/04/07 01:38:42;;;;;;;9.65;4.70;;;10.80;99.90;;;;;;5035312;28;20088;-70
2022/04/07 01:41:08;;;;;;;11.68;4.70;;;10.70;99.90;;;;;;5016104;28;20069;-70
2022/04/07 01:43:35;;;;;;;12.82;5.30;;;10.70;99.90;;;;;;5019996;28;20118;-69
2022/04/07 01:46:02;;;;;;;8.00;4.68;;;10.70;99.90;;;;;;5031375;28;20057;-70
2022/04/07 01:48:30;;;;;;;10.65;4.32;;;10.70;99.90;;;;;;5003881;28;20402;-70
2022/04/07 01:50:57;;;;;;;11.30;4.68;;;10.70;99.90;;;;;;5020851;28;20034;-70
2022/04/07 01:53:26;;;;;;;8.27;4.00;;;10.70;99.90;;;;;;5032870;28;20092;-70
2022/04/07 01:55:53;;;;;;;10.25;4.72;;;10.60;99.90;;;;;;5031397;28;20057;-69
2022/04/07 01:58:19;;;;;;;9.18;4.18;;;10.60;99.90;;;;;;5015757;28;20036;-70
2022/04/07 02:00:46;;;;;;;15.52;4.90;;;10.60;99.90;;;;;;4997196;28;20072;-70
2022/04/07 02:03:12;;;;;;;12.02;4.65;;;10.50;99.90;;;;;;5016865;28;20821;-71
2022/04/07 02:05:39;;;;;;;11.73;4.80;;;10.60;99.90;;;;;;5019182;28;20112;-70
2022/04/07 02:08:05;;;;;;;11.18;4.30;;;10.60;99.90;;;;;;5016673;28;20492;-70
2022/04/07 02:10:32;;;;;;;11.77;4.60;;;10.70;99.90;;;;;;5002289;28;20045;-71
2022/04/07 02:12:58;;;;;;;14.20;4.63;;;10.70;99.90;;;;;;5019688;28;20393;-69
2022/04/07 02:15:26;;;;;;;7.70;4.20;;;10.60;99.90;;;;;;4999438;28;20038;-70
2022/04/07 02:17:52;;;;;;;7.43;3.67;;;10.70;99.90;;;;;;5015677;28;20437;-70
2022/04/07 02:20:19;;;;;;;12.77;4.30;;;10.70;99.90;;;;;;5033358;28;20045;-70
2022/04/07 02:22:45;;;;;;;11.98;4.47;;;10.60;99.90;;;;;;5017961;28;20047;-70
2022/04/07 02:25:10;;;;;;;11.63;4.53;;;10.60;99.90;;;;;;5017797;28;20504;-70
2022/04/07 02:27:38;;;;;;;9.27;4.50;;;10.70;99.90;;;;;;5023623;28;20409;-70
2022/04/07 02:30:08;;;;;;;10.02;4.60;;;10.70;99.90;;;;;;5018027;28;20469;-69
2022/04/07 02:32:34;;;;;;;15.35;5.38;;;10.90;99.90;;;;;;4998277;28;20065;-71
2022/04/07 02:35:00;;;;;;;11.07;4.75;;;10.90;99.90;;;;;;4999743;28;20453;-70
2022/04/07 02:37:26;;;;;;;14.00;5.03;;;11.00;99.90;;;;;;5016024;28;20106;-70
2022/04/07 02:39:53;;;;;;;11.15;5.32;;;10.90;99.90;;;;;;5017412;28;20045;-70
2022/04/07 02:42:19;;;;;;;12.70;5.07;;;10.90;99.90;;;;;;5019250;28;20040;-70
2022/04/07 02:44:46;;;;;;;10.40;4.70;;;11.00;99.90;;;;;;5000028;28;20053;-70
2022/04/07 02:47:12;;;;;;;12.80;4.93;;;10.90;99.90;;;;;;5014839;28;20497;-69
2022/04/07 02:49:41;;;;;;;9.93;5.15;;;10.80;99.90;;;;;;5000185;28;20049;-72
2022/04/07 02:52:11;;;;;;;13.32;5.82;;;10.80;99.90;;;;;;4994874;28;20091;-70
2022/04/07 02:54:38;;;;;;;9.82;5.10;;;10.90;99.90;;;;;;5005654;28;20061;-70
2022/04/07 02:57:04;;;;;;;16.90;5.88;;;10.80;99.90;;;;;;4996649;28;20047;-69
2022/04/07 02:59:31;;;;;;;12.25;6.18;;;10.80;99.90;;;;;;4999676;28;20042;-69
2022/04/07 03:01:58;;;;;;;13.18;5.70;;;10.70;99.90;;;;;;4997922;28;20038;-70
2022/04/07 03:04:25;;;;;;;12.55;5.47;;;10.70;99.90;;;;;;5030120;28;20038;-70
2022/04/07 03:06:53;;;;;;;12.10;5.50;;;10.70;99.90;;;;;;5001183;28;20042;-69
2022/04/07 03:09:20;;;;;;;14.38;6.32;;;10.70;99.90;;;;;;5018886;28;20046;-71
2022/04/07 03:11:48;;;;;;;11.88;5.60;;;10.80;99.90;;;;;;5018497;28;20042;-70
2022/04/07 03:14:14;;;;;;;11.80;5.80;;;10.80;99.90;;;;;;5028436;28;20061;-70
2022/04/07 03:16:41;;;;;;;15.85;5.57;;;10.90;99.90;;;;;;5020505;28;20129;-69
2022/04/07 03:19:08;;;;;;;14.77;5.20;;;11.10;99.90;;;;;;5017029;28;20034;-69
2022/04/07 03:21:35;;;;;;;14.10;7.13;;;11.10;99.90;;;;;;5035842;28;20049;-69
2022/04/07 03:24:00;;;;;;;14.57;7.65;;;11.30;99.90;;;;;;5019008;28;20054;-70
2022/04/07 03:26:26;;;;;;;15.00;7.30;;;11.20;99.90;;;;;;5018169;28;20049;-70
2022/04/07 03:28:54;;;;;;;14.05;7.00;;;11.20;99.90;;;;;;5024832;28;20037;-70
2022/04/07 03:31:19;;;;;;;10.95;5.55;;;11.20;99.90;;;;;;5025212;28;20037;-70
2022/04/07 03:33:46;;;;;;;10.07;5.50;;;11.20;99.90;;;;;;5020303;28;20550;-70
2022/04/07 03:36:11;;;;;;;9.70;5.60;;;11.70;99.90;;;;;;5018910;28;20046;-69
2022/04/07 03:38:38;;;;;;;11.18;7.05;;;11.60;99.90;;;;;;5017001;28;20038;-69
2022/04/07 03:41:08;;;;;;;16.38;7.30;;;11.50;99.90;;;;;;5019900;28;20114;-70
2022/04/07 03:43:35;;;;;;;10.15;5.15;;;11.50;99.90;;;;;;5019037;28;20061;-69
2022/04/07 03:46:01;;;;;;;11.68;6.18;;;11.50;99.90;;;;;;5041535;28;20124;-70
2022/04/07 03:48:26;;;;;;;9.73;6.43;;;11.50;99.90;;;;;;5019796;28;20544;-70
2022/04/07 03:50:53;;;;;;;10.40;6.30;;;11.40;99.90;;;;;;5017203;28;20045;-69
2022/04/07 03:53:19;;;;;;;16.52;6.43;;;11.30;99.90;;;;;;5015487;28;20045;-71
2022/04/07 03:55:45;;;;;;;14.32;6.95;;;11.10;99.90;;;;;;5022033;28;20029;-70
2022/04/07 03:58:11;;;;;;;10.57;5.47;;;11.10;99.90;;;;;;5025427;28;20443;-70
2022/04/07 04:00:37;;;;;;;14.68;6.28;;;11.30;99.90;;;;;;5022502;28;20113;-70
2022/04/07 04:03:02;;;;;;;11.20;6.20;;;11.40;99.90;;;;;;5018851;28;20620;-70
2022/04/07 04:05:28;;;;;;;10.93;5.55;;;11.40;99.90;;;;;;5021060;28;20099;-70
2022/04/07 04:07:56;;;;;;;10.10;6.63;;;11.60;99.90;;;;;;5020496;28;20140;-70
2022/04/07 04:10:23;;;;;;;8.85;5.50;;;11.40;99.90;;;;;;5017549;28;20049;-70
2022/04/07 04:12:49;;;;;;;7.82;5.45;;;11.40;99.90;;;;;;5035595;28;20128;-71
2022/04/07 04:15:15;;;;;;;10.65;5.18;;;11.30;99.90;;;;;;5017257;28;20038;-70
2022/04/07 04:17:42;;;;;;;14.32;5.80;;;11.40;99.90;;;;;;5004140;28;20034;-70
2022/04/07 04:20:09;;;;;;;7.60;3.70;;;11.30;99.90;;;;;;5017152;28;20041;-69
2022/04/07 04:22:36;;;;;;;8.43;4.15;;;11.30;99.90;;;;;;5004605;28;20060;-69
2022/04/07 04:25:03;;;;;;;7.18;4.75;;;11.70;99.90;;;;;;5024815;28;20057;-69
2022/04/07 04:27:28;;;;;;;15.02;5.28;;;11.60;99.90;;;;;;5006504;28;20472;-69
2022/04/07 04:29:55;;;;;;;10.95;5.88;;;11.60;99.90;;;;;;5034705;28;20029;-69
2022/04/07 04:32:21;;;;;;;13.18;6.38;;;11.50;99.90;;;;;;5035907;28;20046;-70
2022/04/07 04:34:48;;;;;;;10.80;5.93;;;11.30;99.90;;;;;;5035063;28;20048;-70
2022/04/07 04:37:14;;;;;;;13.60;6.30;;;11.40;99.90;;;;;;5032195;28;20161;-69
2022/04/07 04:39:40;;;;;;;11.63;6.45;;;11.20;99.90;;;;;;5020476;28;20582;-69
2022/04/07 04:42:06;;;;;;;13.75;6.97;;;11.20;99.90;;;;;;5001926;28;20041;-69
2022/04/07 04:44:33;;;;;;;10.48;5.15;;;11.10;99.90;;;;;;5019473;28;20053;-70
2022/04/07 04:47:00;;;;;;;10.10;5.90;;;11.10;99.90;;;;;;5030729;28;20038;-70
2022/04/07 04:49:26;;;;;;;15.57;7.30;;;11.10;99.90;;;;;;5021662;28;20053;-69
2022/04/07 04:51:52;;;;;;;14.57;7.20;;;11.20;99.90;;;;;;5024003;28;20156;-70
2022/04/07 04:54:18;;;;;;;12.85;7.15;;;11.10;99.90;;;;;;5006944;28;20034;-70
2022/04/07 04:56:45;;;;;;;10.30;6.25;;;11.00;99.90;;;;;;5033515;28;20045;-70
2022/04/07 04:59:11;;;;;;;15.30;6.43;;;10.90;99.90;;;;;;5024182;28;20042;-70
2022/04/07 05:01:37;;;;;;;11.95;6.95;;;10.80;99.90;;;;;;5019032;28;20230;-70
2022/04/07 05:04:06;;;;;;;14.02;6.60;;;10.70;99.90;;;;;;5017903;28;20134;-69
2022/04/07 05:06:32;;;;;;;13.90;6.50;;;10.70;99.90;;;;;;5022538;28;20038;-69
2022/04/07 05:08:58;;;;;;;11.80;6.25;;;10.70;99.90;;;;;;5034774;28;20049;-69
2022/04/07 05:11:24;;;;;;;10.82;5.07;;;10.70;99.90;;;;;;5001894;28;20041;-70
2022/04/07 05:13:52;;;;;;;11.70;4.70;;;10.70;99.90;;;;;;5017110;28;20056;-70
2022/04/07 05:16:18;;;;;;;8.18;3.58;;;10.70;99.90;;;;;;5015777;28;20041;-71
2022/04/07 05:18:47;;;;;;;12.65;4.28;;;11.00;99.90;;;;;;5021275;28;20063;-70
2022/04/07 05:21:15;;;;;;;10.25;5.25;;;11.20;99.90;;;;;;5000579;28;20030;-71
2022/04/07 05:23:41;;;;;;;11.20;4.97;;;11.10;99.90;;;;;;5023777;28;20037;-70
2022/04/07 05:26:08;;;;;;;12.18;4.78;;;11.10;99.90;;;;;;5033322;28;20030;-69
2022/04/07 05:28:33;;;;;;;9.90;4.82;;;11.20;99.90;;;;;;5019046;28;20033;-71
2022/04/07 05:31:01;;;;;;;7.78;4.70;;;11.30;99.90;;;;;;5033611;28;20087;-71
2022/04/07 05:33:27;;;;;;;11.00;5.10;;;11.20;99.90;;;;;;5018841;28;20049;-69
2022/04/07 05:35:53;;;;;;;10.55;5.13;;;11.20;99.90;;;;;;5032335;28;20385;-69
2022/04/07 05:38:19;;;;;;;8.93;5.07;;;11.10;99.90;;;;;;5015231;28;20029;-70
2022/04/07 05:40:45;;;;;;;10.05;3.47;;;11.10;99.90;;;;;;5033009;28;20041;-70
2022/04/07 05:43:11;;;;;;;5.78;2.50;;;11.10;99.90;;;;;;5019586;28;20640;-70
2022/04/07 05:45:39;;;;;;;4.55;2.30;;;11.40;99.90;;;;;;5009318;28;20136;-70
2022/04/07 05:48:05;;;;;;;5.90;1.83;;;11.60;99.90;;;;;;5036917;28;20029;-70
2022/04/07 05:50:31;;;;;;;3.83;1.70;;;11.70;99.90;;;;;;5018801;28;20041;-71
2022/04/07 05:52:57;;;;;;;3.28;1.70;;;11.70;99.90;;;;;;5017543;28;20038;-70
2022/04/07 05:55:23;;;;;;;3.83;1.75;;;11.90;99.90;;;;;;5032491;28;20033;-70
2022/04/07 05:57:49;;;;;;;3.92;2.30;;;12.00;99.90;;;;;;5021521;28;20041;-69
2022/04/07 06:00:18;;;;;;;3.65;1.55;;;12.00;99.90;;;;;;5017312;28;20088;-70
2022/04/07 06:02:45;;;;;;;4.30;1.70;;;12.30;99.90;;;;;;5017869;28;20034;-69
2022/04/07 06:05:14;;;;;;;5.32;1.70;;;12.30;99.90;;;;;;5002159;28;20124;-69
2022/04/07 06:07:41;;;;;;;3.63;1.70;;;12.50;99.90;;;;;;5019310;28;20034;-74
2022/04/07 06:10:08;;;;;;;4.50;1.50;;;12.40;99.90;;;;;;5015731;28;20099;-70
2022/04/07 06:12:34;;;;;;;3.20;1.75;;;12.40;99.90;;;;;;5036185;28;20038;-71
2022/04/07 06:15:01;;;;;;;4.97;1.80;;;12.50;99.90;;;;;;5017917;28;20042;-70
2022/04/07 06:17:34;;;;;;;2.58;1.52;;;12.50;99.90;;;;;;5015266;28;20477;-70
2022/04/07 06:19:59;;;;;;;4.15;1.73;;;12.50;99.90;;;;;;5018091;28;20054;-71
2022/04/07 06:22:26;;;;;;;2.97;1.60;;;12.40;99.90;;;;;;5016249;28;20045;-69
2022/04/07 06:24:52;;;;;;;5.30;1.70;;;12.40;99.90;;;;;;5018667;28;20052;-70
2022/04/07 06:27:18;;;;;;;3.25;1.63;;;12.40;99.90;;;;;;5014034;28;20068;-71
2022/04/07 06:29:44;;;;;;;3.97;1.92;;;12.40;99.90;;;;;;5035716;28;20399;-70
2022/04/07 06:32:11;;;;;;;3.47;1.38;;;12.50;99.90;;;;;;5013382;28;20056;-70
2022/04/07 06:34:37;;;;;;;3.55;1.55;;;12.50;99.90;;;;;;5017105;28;20064;-70
2022/04/07 06:37:04;;;;;;;7.18;2.05;;;12.60;99.90;;;;;;5015485;28;20128;-69
2022/04/07 06:39:31;;;;;;;4.28;1.80;;;12.70;99.70;;;;;;5017865;28;20045;-69
2022/04/07 06:41:57;;;;;;;4.60;1.92;;;12.80;99.80;;;;;;5016478;28;20037;-70
2022/04/07 06:44:23;;;;;;;4.03;1.13;;;12.90;99.60;;;;;;5012391;28;20053;-70
2022/04/07 06:46:50;;;;;;;4.07;1.67;;;13.00;98.60;;;;;;5016303;28;20049;-70
2022/04/07 06:49:16;;;;;;;5.32;1.50;;;13.10;99.00;;;;;;5021501;28;20073;-70
2022/04/07 06:51:42;;;;;;;3.15;1.30;;;13.10;98.90;;;;;;4998270;28;20126;-70
2022/04/07 06:54:07;;;;;;;2.75;1.08;;;13.10;98.70;;;;;;5032237;28;20037;-71
2022/04/07 06:56:34;;;;;;;1.45;0.98;;;13.20;98.30;;;;;;5012076;28;20069;-69
2022/04/07 06:59:01;;;;;;;1.95;1.02;;;13.30;98.20;;;;;;5023728;28;20052;-70
2022/04/07 07:01:27;;;;;;;2.72;1.23;;;13.20;98.10;;;;;;5019790;28;20029;-70
2022/04/07 07:03:53;;;;;;;3.13;1.05;;;13.20;98.20;;;;;;5002462;28;20038;-69
2022/04/07 07:06:20;;;;;;;1.55;1.10;;;13.20;98.00;;;;;;5005633;28;20088;-69
2022/04/07 07:08:46;;;;;;;5.38;1.17;;;13.30;97.80;;;;;;5019067;28;20076;-69
2022/04/07 07:11:12;;;;;;;5.03;1.40;;;13.30;97.80;;;;;;5004746;28;20046;-70
2022/04/07 07:13:38;;;;;;;5.03;1.30;;;13.30;97.90;;;;;;5022997;28;20045;-70
2022/04/07 07:16:05;;;;;;;4.15;1.08;;;13.30;97.70;;;;;;4999397;28;20034;-71
2022/04/07 07:18:31;;;;;;;3.78;1.05;;;13.30;97.50;;;;;;5003111;28;20045;-70
2022/04/07 07:20:57;;;;;;;2.42;1.10;;;13.40;97.40;;;;;;5010821;28;20112;-70
2022/04/07 07:23:23;;;;;;;1.50;1.00;;;13.40;97.50;;;;;;5001490;28;20405;-69
2022/04/07 07:25:49;;;;;;;2.47;1.08;;;13.50;97.40;;;;;;5006620;28;20034;-70
2022/04/07 07:28:16;;;;;;;2.03;0.90;;;13.60;97.10;;;;;;5002632;28;20160;-70
2022/04/07 07:30:42;;;;;;;1.70;0.90;;;13.70;97.20;;;;;;5004105;28;20072;-70
2022/04/07 07:33:10;;;;;;;3.92;1.15;;;13.60;97.20;;;;;;5003260;28;20034;-70
2022/04/07 07:35:36;;;;;;;2.65;1.30;;;13.70;97.10;;;;;;5019301;28;20069;-70
2022/04/07 07:38:03;;;;;;;6.07;1.00;;;13.80;97.10;;;;;;5019050;28;20125;-71
2022/04/07 07:40:31;;;;;;;2.25;1.00;;;13.90;97.00;;;;;;5019419;28;20129;-70
2022/04/07 07:42:57;;;;;;;2.33;1.08;;;14.00;97.00;;;;;;5005855;28;20050;-72
2022/04/07 07:45:25;;;;;;;1.85;1.08;;;14.10;96.50;;;;;;5005748;28;20050;-72
2022/04/07 07:47:55;;;;;;;3.42;1.20;;;14.30;96.50;;;;;;5018580;28;20122;-70
2022/04/07 07:50:22;;;;;;;2.53;1.58;;;14.30;96.70;;;;;;5002366;28;20041;-70
2022/04/07 07:52:48;;;;;;;2.58;1.10;;;14.40;96.30;;;;;;5020031;28;20041;-70
2022/04/07 07:55:14;;;;;;;2.53;1.10;;;14.40;96.40;;;;;;5022060;28;20044;-71
2022/04/07 07:57:41;;;;;;;2.20;1.00;;;14.40;96.30;;;;;;5006376;28;20177;-70
2022/04/07 08:00:09;;;;;;;4.13;0.85;;;14.50;96.30;;;;;;5004185;28;20246;-71
2022/04/07 08:02:36;;;;;;;5.05;2.40;;;14.50;96.30;;;;;;4986478;28;20482;-70
2022/04/07 08:05:04;;;;;;;4.07;1.65;;;14.60;96.30;;;;;;4988194;28;20096;-70
2022/04/07 08:07:31;;;;;;;2.40;0.98;;;14.60;96.20;;;;;;4994936;28;20077;-71
2022/04/07 08:09:57;;;;;;;2.35;1.10;;;14.60;96.00;;;;;;4988119;28;20152;-71
2022/04/07 08:12:25;;;;;;;3.80;1.20;;;14.70;96.10;;;;;;5000794;28;20125;-70
2022/04/07 08:14:51;;;;;;;2.42;1.20;;;14.80;96.20;;;;;;4984371;28;20056;-71
2022/04/07 08:17:18;;;;;;;3.92;1.05;;;14.80;96.00;;;;;;5015178;28;20061;-70
2022/04/07 08:19:44;;;;;;;1.40;0.90;;;14.70;96.30;;;;;;5019936;28;20136;-70
2022/04/07 08:22:10;;;;;;;6.93;1.38;;;14.70;96.20;;;;;;4978756;28;20888;-70
2022/04/07 08:24:37;;;;;;;1.75;1.05;;;14.80;96.00;;;;;;4995640;28;20042;-70
2022/04/07 08:27:05;;;;;;;3.63;1.02;;;14.80;95.90;;;;;;4977703;28;20046;-71
2022/04/07 08:29:32;;;;;;;2.08;1.20;;;14.80;96.00;;;;;;4987461;28;20041;-70
2022/04/07 08:31:58;;;;;;;2.05;0.90;;;14.90;95.90;;;;;;5016215;28;20047;-71
2022/04/07 08:34:25;;;;;;;2.72;1.05;;;15.80;95.60;;;;;;4984802;28;20053;-70
2022/04/07 08:36:52;;;;;;;2.10;0.98;;;17.80;93.80;;;;;;4984785;28;20485;-71
2022/04/07 08:39:19;;;;;;;1.50;1.15;;;18.60;92.40;;;;;;4985465;28;20065;-70
2022/04/07 08:41:47;;;;;;;4.75;1.13;;;18.30;92.40;;;;;;5017275;28;20547;-70
2022/04/07 08:44:17;;;;;;;1.48;1.10;;;18.20;92.50;;;;;;5016842;28;20439;-70
2022/04/07 08:46:56;;;;;;;4.63;1.00;;;18.60;92.10;;;;;;5004075;28;20038;-70
2022/04/07 08:49:23;;;;;;;4.50;1.15;;;18.50;92.10;;;;;;4983070;28;20414;-70
2022/04/07 08:51:53;;;;;;;4.68;1.40;;;18.00;92.30;;;;;;5004000;28;20042;-72
2022/04/07 08:54:20;;;;;;;2.63;1.40;;;18.40;92.20;;;;;;4986032;28;20038;-71
2022/04/07 08:56:47;;;;;;;2.75;1.00;;;18.40;92.20;;;;;;4984884;28;20042;-72
2022/04/07 08:59:15;;;;;;;2.17;1.40;;;18.50;91.50;;;;;;5001765;28;20052;-70
2022/04/07 09:01:42;;;;;;;4.30;1.40;;;19.60;91.10;;;;;;4988017;28;20046;-70
2022/04/07 09:04:12;;;;;;;5.22;1.40;;;20.90;89.90;;;;;;4988862;28;20049;-70
2022/04/07 09:06:39;;;;;;;5.28;1.33;;;21.20;88.70;;;;;;4980978;28;20375;-70
2022/04/07 09:09:20;;;;;;;4.80;1.48;;;21.80;87.20;;;;;;4986066;28;21182;-71
2022/04/07 09:11:46;;;;;;;5.93;1.60;;;22.50;86.10;;;;;;5016836;28;20042;-71
2022/04/07 09:14:14;;;;;;;5.07;1.27;;;22.70;85.80;;;;;;4980946;28;20484;-71
2022/04/07 09:16:41;;;;;;;4.88;1.20;;;21.90;85.30;;;;;;4981839;28;20035;-71
2022/04/07 09:19:08;;;;;;;4.93;1.20;;;22.70;84.90;;;;;;5001451;28;20048;-71
2022/04/07 09:21:37;;;;;;;2.40;1.42;;;23.20;84.00;;;;;;5000371;28;20046;-71
2022/04/07 09:24:07;;;;;;;2.58;0.98;;;23.70;82.10;;;;;;4976209;28;20062;-71
2022/04/07 09:26:39;;;;;;;8.07;1.40;;;23.30;81.70;;;;;;4988007;28;20048;-70
2022/04/07 09:29:14;;;;;;;4.40;1.30;;;23.50;81.90;;;;;;5010772;28;20053;-71
2022/04/07 09:31:52;;;;;;;3.15;1.30;;;22.50;82.90;;;;;;4982133;28;20100;-71
2022/04/07 09:34:32;;;;;;;2.47;1.50;;;22.80;82.30;;;;;;4984059;28;20097;-71
2022/04/07 09:37:08;;;;;;;3.17;1.30;;;23.00;81.70;;;;;;4993762;28;20045;-71
2022/04/07 09:39:36;;;;;;;3.97;1.55;;;22.70;81.00;;;;;;5015292;28;20449;-71
2022/04/07 09:42:29;;;;;;;3.08;1.77;;;22.10;82.00;;;;;;5013104;28;20065;-71
2022/04/07 09:44:59;;;;;;;4.20;1.63;;;20.70;83.80;;;;;;5015461;28;20034;-71
2022/04/07 09:47:38;;;;;;;7.07;2.30;;;20.60;84.60;;;;;;4983549;28;21048;-72
2022/04/07 09:50:06;;;;;;;3.47;1.60;;;21.50;83.70;;;;;;4986700;28;20125;-71
2022/04/07 09:52:32;;;;;;;5.53;2.20;;;21.10;83.80;;;;;;4989418;28;20046;-71
2022/04/07 09:55:06;;;;;;;5.85;1.63;;;20.20;84.70;;;;;;4984011;28;20494;-71
2022/04/07 09:57:36;;;;;;;9.38;1.90;;;19.10;86.30;;;;;;5016513;28;20057;-71
2022/04/07 10:00:07;;;;;;;8.82;2.30;;;20.40;85.80;;;;;;4982843;28;20052;-70
2022/04/07 10:02:34;;;;;;;5.78;2.17;;;21.50;84.40;;;;;;4986747;28;20532;-71
2022/04/07 10:05:02;;;;;;;9.70;2.42;;;21.10;84.00;;;;;;4977783;28;20462;-72
2022/04/07 10:07:29;;;;;;;4.03;2.28;;;20.80;84.80;;;;;;4980276;28;20042;-71
2022/04/07 10:09:55;;;;;;;16.17;2.65;;;20.20;85.30;;;;;;4986338;28;20057;-70
2022/04/07 10:12:24;;;;;;;10.25;2.72;;;20.50;86.40;;;;;;4985502;28;20073;-70
2022/04/07 10:14:51;;;;;;;8.93;2.47;;;20.20;85.80;;;;;;4984288;28;20080;-71
2022/04/07 10:17:17;;;;;;;6.50;2.92;;;20.30;87.00;;;;;;4982508;28;20757;-71
2022/04/07 10:20:00;;;;;;;10.50;2.88;;;20.00;87.80;;;;;;4980631;28;20042;-73
2022/04/07 10:22:38;;;;;;;4.82;2.80;;;19.70;88.30;;;;;;4987095;28;20037;-73
2022/04/07 10:25:06;;;;;;;8.55;3.17;;;19.60;88.50;;;;;;4958111;28;20053;-73
2022/04/07 10:27:38;;;;;;;14.50;3.70;;;19.90;88.60;;;;;;5017477;28;20072;-73
2022/04/07 10:30:04;;;;;;;;;;;20.20;88.50;;;;;;4986540;28;20065;-73
2022/04/07 10:32:46;;;;;;;7.53;2.88;;;19.80;88.70;;;;;;5017141;28;19959;-72
2022/04/07 10:35:35;;;;;;;6.22;2.75;;;20.50;88.40;;;;;;5014016;28;20396;-74
2022/04/07 10:38:05;;;;;;;10.57;2.67;;;20.50;88.00;;;;;;4981769;28;20131;-74
2022/04/07 10:40:49;;;;;;;9.70;2.78;;;20.70;87.50;;;;;;4988920;28;20127;-73
2022/04/07 10:43:25;;;;;;;8.57;2.85;;;19.90;89.20;;;;;;4984883;28;20141;-73
2022/04/07 10:46:02;;;;;;;7.78;2.65;;;20.20;88.90;;;;;;5018345;28;20722;-74
2022/04/07 10:48:33;;;;;;;8.35;3.30;;;20.40;89.50;;;;;;4983175;28;20049;-74
2022/04/07 10:51:05;;;;;;;5.05;2.90;;;19.80;90.40;;;;;;4979596;28;20050;-73
2022/04/07 10:53:37;;;;;;;7.93;3.42;;;20.00;90.20;;;;;;5003777;28;20562;-74
2022/04/07 10:56:07;;;;;;;8.73;3.30;;;20.60;90.20;;;;;;4997284;28;20041;-73
2022/04/07 10:58:47;;;;;;;9.93;3.22;;;21.10;90.00;;;;;;4984571;28;20386;-73
2022/04/07 11:01:33;;;;;;;8.30;2.92;;;21.50;89.50;;;;;;4968531;28;20048;-74
2022/04/07 11:07:13;;;;;;;9.50;2.70;;;20.60;90.00;;;;;;4983758;28;20034;-75
2022/04/07 11:09:58;;;;;;;8.27;2.45;;;20.70;90.00;;;;;;4993304;28;20408;-75
2022/04/07 11:12:31;;;;;;;11.93;2.53;;;20.60;90.40;;;;;;4988210;28;20042;-75
2022/04/07 11:15:04;;;;;;;8.95;2.60;;;21.10;90.20;;;;;;4999163;28;20047;-75
2022/04/07 11:17:33;;;;;;;6.95;2.55;;;20.90;90.30;;;;;;4989591;28;20409;-76
2022/04/07 11:20:14;;;;;;;8.15;2.50;;;21.40;89.80;;;;;;5004371;28;20038;-74
2022/04/07 11:22:52;;;;;;;8.88;3.10;;;21.90;89.10;;;;;;4984393;28;20042;-74
2022/04/07 11:25:43;;;;;;;10.20;2.17;;;21.40;88.10;;;;;;5001369;28;20104;-76
2022/04/07 11:28:22;;;;;;;5.85;1.95;;;21.50;87.80;;;;;;5000830;28;20073;-75
2022/04/07 11:30:52;;;;;;;7.57;2.22;;;20.90;88.00;;;;;;4984360;28;20096;-76
2022/04/07 11:33:19;;;;;;;8.30;2.47;;;21.10;88.30;;;;;;5003883;28;20042;-74
2022/04/07 11:36:04;;;;;;;7.25;2.05;;;21.80;87.10;;;;;;4982824;28;20088;-75
2022/04/07 11:38:42;;;;;;;4.20;1.90;;;21.70;86.10;;;;;;5009821;28;20026;-75
2022/04/07 11:41:19;;;;;;;5.60;1.92;;;21.70;85.60;;;;;;4961421;28;20045;-72
2022/04/07 11:43:50;;;;;;;7.55;1.92;;;21.60;85.00;;;;;;5000042;28;20053;-74
2022/04/07 11:46:25;;;;;;;5.87;1.93;;;22.70;83.70;;;;;;5002068;28;20042;-74
2022/04/07 11:48:52;;;;;;;6.97;2.30;;;23.20;82.80;;;;;;4985914;28;20505;-75
2022/04/07 11:51:19;;;;;;;6.32;2.47;;;23.10;83.20;;;;;;4988207;28;20058;-74
2022/04/07 11:53:52;;;;;;;5.65;2.00;;;23.70;82.90;;;;;;4990378;28;20464;-76
2022/04/07 11:56:37;;;;;;;7.82;1.90;;;24.00;81.60;;;;;;4969243;28;20022;-75
2022/04/07 11:59:05;;;;;;;8.82;2.05;;;24.50;81.60;;;;;;4983633;28;20042;-74
2022/04/07 12:01:33;;;;;;;5.65;2.03;;;23.10;81.60;;;;;;5009650;28;20392;-76
2022/04/07 12:04:01;;;;;;;11.68;2.65;;;23.50;82.10;;;;;;4994901;28;20038;-74
2022/04/07 12:06:32;;;;;;;5.95;2.03;;;23.90;81.00;;;;;;4978773;28;20052;-73
2022/04/07 12:09:01;;;;;;;7.60;2.00;;;24.70;81.00;;;;;;4958774;28;20060;-74
2022/04/07 12:11:32;;;;;;;7.97;1.92;;;25.00;79.90;;;;;;4998781;28;20138;-74
2022/04/07 12:13:59;;;;;;;4.75;1.83;;;25.00;78.60;;;;;;5002606;28;20128;-74
2022/04/07 12:16:25;;;;;;;8.48;2.53;;;24.90;79.30;;;;;;4988809;28;20038;-74
2022/04/07 12:19:00;;;;;;;7.72;2.03;;;24.70;78.70;;;;;;4999530;28;20041;-73
2022/04/07 12:21:28;;;;;;;6.70;2.40;;;25.00;79.40;;;;;;5015519;28;20524;-76
2022/04/07 12:24:13;;;;;;;10.07;2.17;;;25.30;78.70;;;;;;5000125;28;20101;-74
2022/04/07 12:26:45;;;;;;;5.93;1.88;;;25.90;78.10;;;;;;5000457;28;20049;-74
2022/04/07 12:29:33;;;;;;;7.50;2.05;;;26.60;75.90;;;;;;5013377;28;20042;-74
2022/04/07 12:32:07;;;;;;;12.25;1.92;;;25.70;78.30;;;;;;5018108;28;20034;-75
2022/04/07 12:34:34;;;;;;;4.68;1.40;;;26.40;78.00;;;;;;5004059;28;20457;-74
2022/04/07 12:37:01;;;;;;;5.80;0.93;;;25.80;72.80;;;;;;4998097;28;20512;-74
2022/04/07 12:39:42;;;;;;;4.13;0.98;;;25.80;69.70;;;;;;5001365;28;20080;-73
2022/04/07 12:42:08;;;;;;;4.03;1.30;;;26.40;68.80;;;;;;4996387;28;20428;-75
2022/04/07 12:44:38;;;;;;;5.32;1.08;;;26.70;67.60;;;;;;5018735;28;20226;-75
2022/04/07 12:47:18;;;;;;;4.68;1.27;;;26.90;67.60;;;;;;5014618;28;20060;-76
2022/04/07 12:49:57;;;;;;;5.55;1.00;;;26.80;67.80;;;;;;5020945;28;20048;-73
2022/04/07 12:52:37;;;;;;;4.90;1.02;;;25.80;66.80;;;;;;5035394;28;20044;-75